Terminal Aerodrome Forecast
Issued by NWS

Home | Current Version | Previous Version | Text Only | Print | Product List | Glossary On
Versions: 1 2 3 4 5 6 7 8 9 10 11 12 13 14
000
FTUS45 KMSO 201246 AAA
TAFSMN
TAF AMD
KSMN 201246Z 2013/2112 00000KT 1/2SM FG OVC003
      TEMPO 2013/2016 1/4SM FG OVC002
     FM210600 18005KT 6SM -RA OVC050
      AMD LTD TO CLD VIS AND WIND=

USA.gov is the U.S. government's official web portal to all federal, state and local government web resources and services.